Historyczne dane pomiarowe

Dodano dane terminowe – wersja testowa.

Dane z okresu 1951-2019

Wersja bazy: 1.34 [2019-03-16, lista zmian], aktualizacja planowana na 2019-04-15

Dane meteo z obszaru Polski uzyskane na podstawie danych udostępnionych przez Instytut Meteorologii i Gospodarki Wodnej – Państwowy Instytut Badawczy.

 

Wybierz Datę:    

       

TemperaturaWilgotnośćWiatrCiśnienieOpadyŚniegCzas trwania zjawisk
 Stacja t tx tn tng RH VA  wxwx mslp ppp RRR   cm mm wxwxwxwxwxwxwx
2012-07-16 16.9 22.4 13.3 12.3-- 5.3----- 0.0------------
2012-07-17 15.8 22.4 10.5 9.0-- 6.0----- 2.3------------
2012-07-18 15.3 20.4 11.3 10.0-- 7.3----- 3.5------------
2012-07-19 19.1 27.4 14.0 12.9-- 6.0----- 3.2------------
2012-07-20 18.3 23.9 13.0 11.2-- 5.3----- 0.2------------
2012-07-21 15.6 18.7 13.7 9.9-- 7.0----- 0.0------------
2012-07-22 16.9 21.4 12.3 11.0-- 5.0----- 0.0------------
2012-07-23 18.3 24.4 10.0 5.6-- 1.3----- 0.0------------
2012-07-24 20.4 27.0 12.0 8.0-- 0.7----- 0.0------------
2012-07-25 22.4 29.3 13.2 11.3-- 4.3----- 0.9------------
2012-07-26 23.1 28.8 18.7 17.8-- 7.7----- 0.0------------
2012-07-27 24.9 33.3 16.0 13.0-- 2.3----- 0.0------------
2012-07-28 26.9 34.3 18.7 15.9-- 1.0----- 0.0------------
2012-07-29 25.4 34.4 20.4 18.3-- 4.0----- 0.2------------
2012-07-30 20.0 22.1 17.9 15.8-- 7.0----- 0.6------------
2012-07-31 21.2 26.5 16.5 12.8-- 5.3----- 0.0------------
2012-08-01 21.5 28.9 13.8 10.3-- 4.0----- 0.0------------
2012-08-02 23.0 30.4 15.1 13.2-- 3.0----- 0.0------------
2012-08-03 25.6 33.1 18.3 16.4-- 3.7----- 0.0------------
2012-08-04 22.0 27.5 17.5 16.0-- 5.0----- 0.0------------
2012-08-05 24.1 31.1 17.1 14.2-- 4.7----- 0.0------------
2012-08-06 28.5 36.8 20.2 19.0-- 1.0----- 0.0------------
2012-08-07 22.8 30.8 19.3 19.4-- 4.7----- 0.0------------
2012-08-08 18.9 24.0 14.0 11.5-- 2.7----- 0.0------------
2012-08-09 16.9 23.9 11.7 7.6-- 6.0----- 0.0------------
2012-08-10 16.2 21.4 12.7 11.0-- 4.0----- 0.0------------
2012-08-11 14.9 17.9 11.7 9.0-- 7.0----- 0.0------------
2012-08-12 13.2 17.8 8.7 6.1-- 8.0----- 13.4------------
2012-08-13 13.1 14.7 11.7 11.4-- 8.0----- 42.5------------
2012-08-14 12.6 13.4 11.9 11.9-- 8.0----- 8.9------------
142.5 ms

 

Źródłem pochodzenia danych jest Instytut Meteorologii i Gospodarki Wodnej – Państwowy Instytut Badawczy. Dane Instytutu Meteorologii i Gospodarki Wodnej – Państwowego Instytutu Badawczego zostały przetworzone.

Dane źródłowe można odnaleźć na stronie https://dane.imgw.pl